createdAt,value
2023-03-27T00:01:46.938Z,100726.13
2023-03-27T00:03:51.798Z,100733.91
2023-03-27T00:06:01.877Z,100726.22
2023-03-27T00:08:06.107Z,100734.84
2023-03-27T00:10:10.188Z,100733.16
2023-03-27T00:12:13.473Z,100729.78
2023-03-27T00:14:17.218Z,100734.94
2023-03-27T00:16:21.698Z,100734.94
2023-03-27T00:18:28.288Z,100744.41
2023-03-27T00:20:37.237Z,100740.16
2023-03-27T00:22:41.036Z,100738.47
2023-03-27T00:24:44.331Z,100738.50
2023-03-27T00:26:47.554Z,100743.69
2023-03-27T00:28:51.197Z,100738.56
2023-03-27T00:30:55.949Z,100741.13
2023-03-27T00:33:00.161Z,100738.59
2023-03-27T00:35:05.181Z,100748.97
2023-03-27T00:37:08.475Z,100743.84
2023-03-27T00:39:11.797Z,100743.91
2023-03-27T00:41:15.202Z,100740.59
2023-03-27T00:43:23.610Z,100743.31
2023-03-27T00:45:30.726Z,100741.69
2023-03-27T00:47:37.103Z,100748.66
2023-03-27T00:49:41.231Z,100745.31
2023-03-27T00:51:48.133Z,100750.53
2023-03-27T00:53:52.824Z,100756.63
2023-03-27T00:55:59.314Z,100752.38
2023-03-27T00:58:06.483Z,100754.22
2023-03-27T01:00:12.916Z,100754.25
2023-03-27T01:02:18.361Z,100762.03
2023-03-27T01:04:23.306Z,100757.81
2023-03-27T01:06:27.706Z,100755.25
2023-03-27T01:08:37.157Z,100756.19
2023-03-27T01:10:54.381Z,100757.09
2023-03-27T01:13:05.701Z,100764.03
2023-03-27T01:15:25.002Z,100760.63
2023-03-27T01:17:43.561Z,100764.09
2023-03-27T01:20:18.157Z,100755.56
2023-03-27T01:23:07.099Z,100759.84
2023-03-27T01:25:39.798Z,100764.16
2023-03-27T01:28:04.661Z,100766.75
2023-03-27T01:30:17.261Z,100769.31
2023-03-27T01:32:45.117Z,100767.63
2023-03-27T01:35:11.868Z,100771.09
2023-03-27T01:37:37.815Z,100766.78
2023-03-27T01:39:51.474Z,100769.38
2023-03-27T01:42:01.881Z,100769.44
2023-03-27T01:44:14.782Z,100772.88
2023-03-27T01:46:21.398Z,100771.19
2023-03-27T01:48:31.963Z,100769.50
2023-03-27T01:50:40.210Z,100770.38
2023-03-27T01:52:49.300Z,100781.56
2023-03-27T01:54:58.431Z,100781.56
2023-03-27T01:57:08.392Z,100786.75
2023-03-27T01:59:16.383Z,100788.50
2023-03-27T02:01:25.675Z,100790.25
2023-03-27T02:03:33.711Z,100795.44
2023-03-27T02:05:41.454Z,100790.34
2023-03-27T02:07:51.563Z,100798.97
2023-03-27T02:10:00.994Z,100798.16
2023-03-27T02:12:11.906Z,100805.09
2023-03-27T02:14:20.237Z,100800.84
2023-03-27T02:16:28.857Z,100807.75
2023-03-27T02:18:37.012Z,100802.69
2023-03-27T02:20:42.425Z,100800.16
2023-03-27T02:22:48.931Z,100808.78
2023-03-27T02:24:56.690Z,100807.09
2023-03-27T02:27:07.741Z,100820.00
2023-03-27T02:29:33.864Z,100816.63
2023-03-27T02:31:59.576Z,100816.66
2023-03-27T02:34:29.923Z,100820.13
2023-03-27T02:36:43.488Z,100821.84
2023-03-27T02:38:53.956Z,100812.38
2023-03-27T02:41:06.618Z,100818.41
2023-03-27T02:43:29.196Z,100827.84
2023-03-27T02:45:44.335Z,100827.84
2023-03-27T02:47:53.961Z,100826.09
2023-03-27T02:50:03.057Z,100834.63
2023-03-27T02:52:12.046Z,100838.91
2023-03-27T02:54:18.579Z,100842.38
2023-03-27T02:56:26.446Z,100844.06
2023-03-27T02:58:35.476Z,100844.94
2023-03-27T03:01:02.302Z,100846.69
2023-03-27T03:03:21.764Z,100850.16
2023-03-27T03:05:33.929Z,100847.63
2023-03-27T03:07:38.229Z,100844.25
2023-03-27T03:09:42.080Z,100841.69
2023-03-27T03:11:50.181Z,100841.72
2023-03-27T03:13:53.967Z,100843.47
2023-03-27T03:15:57.450Z,100848.66
2023-03-27T03:18:01.184Z,100857.25
2023-03-27T03:20:05.995Z,100853.81
2023-03-27T03:22:09.997Z,100856.44
2023-03-27T03:24:14.460Z,100857.31
2023-03-27T03:26:18.723Z,100863.38
2023-03-27T03:28:26.191Z,100869.34
2023-03-27T03:30:30.419Z,100877.13
2023-03-27T03:32:44.167Z,100871.97
2023-03-27T03:34:47.689Z,100875.41
2023-03-27T03:36:55.277Z,100884.84
2023-03-27T03:39:05.644Z,100892.59
2023-03-27T03:41:09.835Z,100887.44
2023-03-27T03:43:13.124Z,100886.56
2023-03-27T03:45:18.139Z,100893.38
2023-03-27T03:47:21.507Z,100893.34
2023-03-27T03:49:25.818Z,100892.50
2023-03-27T03:51:31.402Z,100890.78
2023-03-27T03:53:34.575Z,100895.94
2023-03-27T03:55:38.282Z,100896.78
2023-03-27T03:57:41.946Z,100897.66
2023-03-27T03:59:51.831Z,100903.66
2023-03-27T04:02:12.340Z,100913.91
2023-03-27T04:04:15.736Z,100909.66
2023-03-27T04:06:43.279Z,100910.53
2023-03-27T04:08:46.481Z,100907.09
2023-03-27T04:11:10.341Z,100901.94
2023-03-27T04:13:26.274Z,100902.78
2023-03-27T04:15:35.451Z,100911.41
2023-03-27T04:17:40.811Z,100905.41
2023-03-27T04:19:47.086Z,100909.72
2023-03-27T04:21:54.153Z,100915.69
2023-03-27T04:24:02.345Z,100925.09
2023-03-27T04:26:17.640Z,100922.53
2023-03-27T04:28:47.202Z,100929.38
2023-03-27T04:31:11.422Z,100933.69
2023-03-27T04:33:39.348Z,100930.25
2023-03-27T04:36:06.692Z,100932.84
2023-03-27T04:38:31.642Z,100934.59
2023-03-27T04:40:38.258Z,100933.69
2023-03-27T04:42:44.095Z,100941.44
2023-03-27T04:44:48.499Z,100940.56
2023-03-27T04:46:52.000Z,100949.16
2023-03-27T04:48:56.702Z,100938.84
2023-03-27T04:51:16.186Z,100937.13
2023-03-27T04:53:21.350Z,100944.00
2023-03-27T04:55:26.657Z,100956.88
2023-03-27T04:57:30.929Z,100961.19
2023-03-27T04:59:37.498Z,100959.47
2023-03-27T05:02:01.924Z,100962.91
2023-03-27T05:04:14.403Z,100966.41
2023-03-27T05:06:35.255Z,100958.66
2023-03-27T05:08:38.961Z,100963.75
2023-03-27T05:10:42.652Z,100969.75
2023-03-27T05:12:47.877Z,100974.91
2023-03-27T05:14:52.434Z,100984.34
2023-03-27T05:17:10.231Z,100988.63
2023-03-27T05:19:19.429Z,100986.00
2023-03-27T05:21:28.428Z,100998.88
2023-03-27T05:23:32.680Z,100986.81
2023-03-27T05:25:36.797Z,100989.38
2023-03-27T05:27:48.981Z,100994.50
2023-03-27T05:29:52.783Z,100989.31
2023-03-27T05:31:56.150Z,100991.84
2023-03-27T05:34:19.346Z,100988.41
2023-03-27T05:36:23.301Z,101005.50
2023-03-27T05:38:26.626Z,101000.28
2023-03-27T05:40:45.953Z,101003.69
2023-03-27T05:42:53.315Z,101006.16
2023-03-27T05:44:57.001Z,101009.56
2023-03-27T05:47:01.243Z,101007.81
2023-03-27T05:49:06.406Z,101004.31
2023-03-27T05:51:11.376Z,101013.72
2023-03-27T05:53:15.835Z,101004.22
2023-03-27T05:55:31.550Z,101008.47
2023-03-27T05:57:35.048Z,101012.69
2023-03-27T05:59:38.230Z,101023.81
2023-03-27T06:01:58.584Z,101015.09
2023-03-27T06:04:11.157Z,101016.75
2023-03-27T06:06:36.151Z,101023.53
2023-03-27T06:08:40.795Z,101026.06
2023-03-27T06:10:45.840Z,101019.97
2023-03-27T06:13:01.473Z,101031.91
2023-03-27T06:15:12.118Z,101030.09
2023-03-27T06:17:23.972Z,101032.50
2023-03-27T06:19:35.080Z,101043.59
2023-03-27T06:21:40.983Z,101040.06
2023-03-27T06:23:44.549Z,101043.41
2023-03-27T06:25:49.622Z,101043.22
2023-03-27T06:27:53.681Z,101051.72
2023-03-27T06:29:56.981Z,101045.56
2023-03-27T06:32:01.727Z,101048.00
2023-03-27T06:34:11.219Z,101039.25
2023-03-27T06:36:22.654Z,101054.50
2023-03-27T06:38:30.949Z,101056.00
2023-03-27T06:40:35.491Z,101054.00
2023-03-27T06:42:38.880Z,101059.78
2023-03-27T06:45:12.120Z,101068.88
2023-03-27T06:47:54.404Z,101088.28
2023-03-27T06:50:08.228Z,101085.44
2023-03-27T06:52:11.463Z,101099.13
2023-03-27T06:54:16.513Z,101100.78
2023-03-27T06:56:24.652Z,101095.63
2023-03-27T06:58:48.156Z,101099.09
2023-03-27T07:00:51.518Z,101099.09
2023-03-27T07:02:56.552Z,101104.28
2023-03-27T07:05:27.772Z,101101.66
2023-03-27T07:07:31.297Z,101109.28
2023-03-27T07:09:38.717Z,101110.75
2023-03-27T07:11:43.754Z,101115.59
2023-03-27T07:13:47.048Z,101107.66
2023-03-27T07:15:58.329Z,101110.09
2023-03-27T07:18:04.977Z,101112.59
2023-03-27T07:20:09.961Z,101125.44
2023-03-27T07:22:13.157Z,101126.97
2023-03-27T07:24:16.625Z,101120.63
2023-03-27T07:26:21.960Z,101122.03
2023-03-27T07:28:32.843Z,101111.28
2023-03-27T07:30:44.130Z,101111.81
2023-03-27T07:32:47.681Z,101110.78
2023-03-27T07:34:51.665Z,101111.53
2023-03-27T07:37:16.113Z,101107.16
2023-03-27T07:39:39.284Z,101116.53
2023-03-27T07:41:44.117Z,101116.47
2023-03-27T07:44:10.178Z,101124.06
2023-03-27T07:46:26.491Z,101126.47
2023-03-27T07:48:31.136Z,101121.19
2023-03-27T07:50:35.948Z,101128.03
2023-03-27T07:52:43.574Z,101122.81
2023-03-27T07:54:48.767Z,101138.22
2023-03-27T07:56:55.611Z,101134.63
2023-03-27T07:59:08.940Z,101138.03
2023-03-27T08:01:12.316Z,101149.97
2023-03-27T08:03:15.799Z,101142.09
2023-03-27T08:05:21.540Z,101137.63
2023-03-27T08:07:40.763Z,101154.69
2023-03-27T08:09:44.144Z,101135.47
2023-03-27T08:11:47.426Z,101144.75
2023-03-27T08:13:53.180Z,101144.66
2023-03-27T08:16:03.912Z,101163.59
2023-03-27T08:18:07.844Z,101158.47
2023-03-27T08:20:15.326Z,101151.59
2023-03-27T08:22:24.722Z,101148.03
2023-03-27T08:24:47.089Z,101138.34
2023-03-27T08:26:59.579Z,101153.59
2023-03-27T08:29:04.596Z,101155.06
2023-03-27T08:31:11.880Z,101151.38
2023-03-27T08:33:15.267Z,101155.41
2023-03-27T08:35:19.259Z,101155.94
2023-03-27T08:37:22.705Z,101158.25
2023-03-27T08:39:46.857Z,101156.16
2023-03-27T08:41:55.182Z,101172.28
2023-03-27T08:44:09.960Z,101173.94
2023-03-27T08:46:21.258Z,101167.03
2023-03-27T08:48:33.337Z,101182.72
2023-03-27T08:50:44.001Z,101184.53
2023-03-27T08:52:54.039Z,101181.13
2023-03-27T08:55:13.521Z,101195.13
2023-03-27T08:57:28.317Z,101188.25
2023-03-27T08:59:37.949Z,101186.47
2023-03-27T09:01:46.258Z,101186.22
2023-03-27T09:03:59.547Z,101185.09
2023-03-27T09:06:07.590Z,101199.56
2023-03-27T09:08:25.872Z,101198.53
2023-03-27T09:10:36.936Z,101200.94
2023-03-27T09:13:04.281Z,101193.72
2023-03-27T09:15:17.210Z,101206.50
2023-03-27T09:17:32.514Z,101196.91
2023-03-27T09:19:48.270Z,101196.16
2023-03-27T09:22:01.228Z,101204.94
2023-03-27T09:24:29.490Z,101206.88
2023-03-27T09:27:07.050Z,101209.63
2023-03-27T09:29:25.595Z,101206.31
2023-03-27T09:31:58.344Z,101213.41
2023-03-27T09:34:05.495Z,101210.16
2023-03-27T09:36:09.774Z,101212.13
2023-03-27T09:38:25.044Z,101215.81
2023-03-27T09:40:33.917Z,101208.06
2023-03-27T09:42:51.492Z,101200.28
2023-03-27T09:44:57.427Z,101213.13
2023-03-27T09:47:12.338Z,101209.53
2023-03-27T09:49:17.458Z,101209.41
2023-03-27T09:51:41.006Z,101211.88
2023-03-27T09:53:59.390Z,101212.41
2023-03-27T09:56:14.472Z,101212.06
2023-03-27T09:58:36.393Z,101216.09
2023-03-27T10:00:39.689Z,101212.38
2023-03-27T10:02:45.719Z,101220.75
2023-03-27T10:05:00.824Z,101209.25
2023-03-27T10:07:24.134Z,101215.69
2023-03-27T10:10:08.081Z,101208.84
2023-03-27T10:12:23.455Z,101211.63
2023-03-27T10:14:27.795Z,101206.63
2023-03-27T10:16:41.152Z,101214.66
2023-03-27T10:18:50.020Z,101219.53
2023-03-27T10:20:57.826Z,101221.91
2023-03-27T10:23:04.420Z,101219.31
2023-03-27T10:25:18.442Z,101231.75
2023-03-27T10:27:33.248Z,101232.94
2023-03-27T10:29:55.316Z,101235.25
2023-03-27T10:32:00.359Z,101261.72
2023-03-27T10:34:36.685Z,101267.63
2023-03-27T10:37:03.351Z,101310.22
2023-03-27T10:39:11.707Z,101331.94
2023-03-27T10:41:43.648Z,101330.19
2023-03-27T10:43:50.809Z,101321.25
2023-03-27T10:45:59.361Z,101315.53
2023-03-27T10:48:08.570Z,101317.28
2023-03-27T10:50:21.035Z,101304.09
2023-03-27T10:52:29.659Z,101315.72
2023-03-27T10:54:51.238Z,101302.88
2023-03-27T10:57:02.452Z,101298.44
2023-03-27T10:59:12.995Z,101298.16
2023-03-27T11:01:22.866Z,101294.56
2023-03-27T11:03:35.463Z,101299.44
2023-03-27T11:05:46.566Z,101297.38
2023-03-27T11:08:07.236Z,101299.75
2023-03-27T11:10:18.468Z,101290.00
2023-03-27T11:12:23.736Z,101300.84
2023-03-27T11:14:36.242Z,101301.34
2023-03-27T11:16:50.538Z,101296.53
2023-03-27T11:19:43.009Z,101288.13
2023-03-27T11:22:12.986Z,101297.09
2023-03-27T11:24:23.542Z,101293.91
2023-03-27T11:26:49.041Z,101289.78
2023-03-27T11:29:02.091Z,101296.91
2023-03-27T11:31:21.308Z,101300.44
2023-03-27T11:33:41.935Z,101305.00
2023-03-27T11:35:54.748Z,101308.28
2023-03-27T11:38:31.404Z,101325.09
2023-03-27T11:40:42.157Z,101348.19
2023-03-27T11:42:47.719Z,101342.94
2023-03-27T11:44:51.706Z,101342.53
2023-03-27T11:47:34.163Z,101332.78
2023-03-27T11:49:53.419Z,101321.19
2023-03-27T11:52:09.584Z,101308.34
2023-03-27T11:54:25.886Z,101315.09
2023-03-27T11:56:46.727Z,101311.28
2023-03-27T11:59:11.485Z,101321.09
2023-03-27T12:01:27.363Z,101301.44
2023-03-27T12:04:11.938Z,101313.47
2023-03-27T12:06:47.486Z,101310.56
2023-03-27T12:09:17.153Z,101311.91
2023-03-27T12:11:47.619Z,101315.72
2023-03-27T12:14:17.653Z,101303.06
2023-03-27T12:16:49.664Z,101298.06
2023-03-27T12:19:21.155Z,101289.72
2023-03-27T12:21:56.529Z,101307.84
2023-03-27T12:24:46.925Z,101301.91
2023-03-27T12:27:44.868Z,101299.16
2023-03-27T12:30:21.150Z,101290.28
2023-03-27T12:32:45.680Z,101285.59
2023-03-27T12:34:54.483Z,101285.22
2023-03-27T12:37:03.340Z,101270.06
2023-03-27T12:39:13.839Z,101276.56
2023-03-27T12:41:23.809Z,101280.03
2023-03-27T12:43:41.145Z,101273.69
2023-03-27T12:46:20.713Z,101284.22
2023-03-27T12:48:23.940Z,101290.69
2023-03-27T12:50:32.666Z,101286.19
2023-03-27T12:52:39.272Z,101294.78
2023-03-27T12:55:09.336Z,101300.13
2023-03-27T12:57:44.418Z,101302.63
2023-03-27T12:59:56.065Z,101298.63
2023-03-27T13:02:39.052Z,101297.09
2023-03-27T13:05:26.911Z,101309.63
2023-03-27T13:07:40.114Z,101323.16
2023-03-27T13:09:58.538Z,101347.31
2023-03-27T13:12:17.369Z,101338.69
2023-03-27T13:14:45.180Z,101327.66
2023-03-27T13:17:21.615Z,101317.47
2023-03-27T13:19:36.099Z,101328.53
2023-03-27T13:22:01.019Z,101333.41
2023-03-27T13:24:23.842Z,101326.72
2023-03-27T13:26:44.005Z,101320.28
2023-03-27T13:28:50.231Z,101307.47
2023-03-27T13:30:56.330Z,101314.38
2023-03-27T13:33:29.414Z,101312.16
2023-03-27T13:35:40.770Z,101303.19
2023-03-27T13:37:58.149Z,101294.50
2023-03-27T13:40:20.820Z,101307.38
2023-03-27T13:42:28.881Z,101287.66
2023-03-27T13:44:59.888Z,101293.31
2023-03-27T13:47:29.308Z,101292.13
2023-03-27T13:50:03.235Z,101294.56
2023-03-27T13:52:51.115Z,101295.00
2023-03-27T13:55:34.667Z,101302.63
2023-03-27T13:58:21.350Z,101289.19
2023-03-27T14:00:41.644Z,101301.78
2023-03-27T14:03:30.311Z,101294.31
2023-03-27T14:06:10.360Z,101307.59
2023-03-27T14:08:23.642Z,101324.19
2023-03-27T14:11:03.717Z,101306.69
2023-03-27T14:13:25.553Z,101310.50
2023-03-27T14:15:50.108Z,101324.44
2023-03-27T14:18:15.455Z,101311.63
2023-03-27T14:20:27.861Z,101334.19
2023-03-27T14:22:41.166Z,101323.34
2023-03-27T14:24:49.029Z,101313.31
2023-03-27T14:27:07.140Z,101311.44
2023-03-27T14:29:11.828Z,101313.53
2023-03-27T14:31:22.750Z,101311.44
2023-03-27T14:33:39.219Z,101332.91
2023-03-27T14:35:45.658Z,101328.72
2023-03-27T14:38:00.155Z,101337.16
2023-03-27T14:40:23.124Z,101340.41
2023-03-27T14:42:32.600Z,101331.47
2023-03-27T14:44:36.472Z,101350.72
2023-03-27T14:46:48.915Z,101340.56
2023-03-27T14:48:54.932Z,101331.94
2023-03-27T14:51:02.825Z,101333.38
2023-03-27T14:53:16.279Z,101324.34
2023-03-27T14:55:52.941Z,101315.13
2023-03-27T14:58:20.313Z,101328.44
2023-03-27T15:00:27.633Z,101329.72
2023-03-27T15:02:34.851Z,101333.38
2023-03-27T15:04:41.925Z,101330.78
2023-03-27T15:06:50.068Z,101333.56
2023-03-27T15:09:19.702Z,101357.34
2023-03-27T15:11:49.084Z,101333.91
2023-03-27T15:13:57.778Z,101326.50
2023-03-27T15:16:09.613Z,101330.94
2023-03-27T15:18:17.918Z,101341.66
2023-03-27T15:20:25.018Z,101352.78
2023-03-27T15:22:31.488Z,101348.31
2023-03-27T15:24:43.408Z,101348.03
2023-03-27T15:26:49.370Z,101368.09
2023-03-27T15:29:01.786Z,101355.72
2023-03-27T15:31:06.573Z,101356.38
2023-03-27T15:33:17.392Z,101365.66
2023-03-27T15:35:27.393Z,101342.06
2023-03-27T15:37:31.874Z,101351.81
2023-03-27T15:39:39.237Z,101355.59
2023-03-27T15:41:44.594Z,101359.50
2023-03-27T15:43:47.880Z,101380.00
2023-03-27T15:46:04.258Z,101377.81
2023-03-27T15:48:19.101Z,101340.38
2023-03-27T15:50:24.688Z,101360.00
2023-03-27T15:52:32.551Z,101370.19
2023-03-27T15:54:37.483Z,101372.94
2023-03-27T15:56:43.656Z,101375.41
2023-03-27T15:58:51.451Z,101371.09
2023-03-27T16:01:00.571Z,101361.69
2023-03-27T16:03:18.250Z,101366.94
2023-03-27T16:05:21.698Z,101370.31
2023-03-27T16:07:30.224Z,101373.44
2023-03-27T16:09:39.771Z,101364.41
2023-03-27T16:11:45.809Z,101367.09
2023-03-27T16:13:56.216Z,101366.66
2023-03-27T16:16:01.976Z,101399.25
2023-03-27T16:18:18.799Z,101390.41
2023-03-27T16:20:37.352Z,101366.66
2023-03-27T16:22:41.104Z,101392.22
2023-03-27T16:24:45.855Z,101386.41
2023-03-27T16:26:50.293Z,101389.56
2023-03-27T16:28:54.168Z,101366.94
2023-03-27T16:30:57.920Z,101373.19
2023-03-27T16:33:01.458Z,101365.47
2023-03-27T16:35:04.929Z,101361.25
2023-03-27T16:37:08.657Z,101383.81
2023-03-27T16:39:11.864Z,101389.78
2023-03-27T16:41:18.497Z,101363.59
2023-03-27T16:43:21.622Z,101370.22
2023-03-27T16:45:25.385Z,101372.56
2023-03-27T16:47:29.011Z,101369.47
2023-03-27T16:49:32.194Z,101370.66
2023-03-27T16:51:35.849Z,101390.81
2023-03-27T16:53:39.027Z,101404.84
2023-03-27T16:55:42.264Z,101399.84
2023-03-27T16:57:47.232Z,101397.72
2023-03-27T16:59:50.429Z,101403.59
2023-03-27T17:01:54.555Z,101402.34
2023-03-27T17:03:58.572Z,101398.56
2023-03-27T17:06:03.475Z,101404.09
2023-03-27T17:08:07.494Z,101392.38
2023-03-27T17:10:11.478Z,101404.72
2023-03-27T17:12:14.745Z,101410.03
2023-03-27T17:14:19.567Z,101430.06
2023-03-27T17:16:22.801Z,101449.22
2023-03-27T17:18:26.387Z,101462.22
2023-03-27T17:20:29.608Z,101473.69
2023-03-27T17:22:32.870Z,101452.53
2023-03-27T17:24:49.309Z,101446.13
2023-03-27T17:26:59.189Z,101442.44
2023-03-27T17:29:03.353Z,101429.09
2023-03-27T17:31:08.128Z,101439.78
2023-03-27T17:33:12.116Z,101454.72
2023-03-27T17:35:15.457Z,101446.28
2023-03-27T17:37:18.774Z,101442.97
2023-03-27T17:39:22.305Z,101446.59
2023-03-27T17:41:27.181Z,101450.91
2023-03-27T17:43:30.543Z,101442.38
2023-03-27T17:45:33.922Z,101443.28
2023-03-27T17:47:38.570Z,101441.56
2023-03-27T17:49:43.215Z,101454.50
2023-03-27T17:51:46.503Z,101451.00
2023-03-27T17:53:49.880Z,101447.56
2023-03-27T17:55:53.236Z,101447.53
2023-03-27T17:58:08.345Z,101452.59
2023-03-27T18:00:15.244Z,101449.88
2023-03-27T18:02:21.410Z,101480.84
2023-03-27T18:04:31.015Z,101481.59
2023-03-27T18:06:34.372Z,101471.25
2023-03-27T18:08:37.818Z,101479.97
2023-03-27T18:10:45.062Z,101480.09
2023-03-27T18:12:49.027Z,101481.94
2023-03-27T18:14:52.334Z,101482.03
2023-03-27T18:16:55.526Z,101484.72
2023-03-27T18:18:58.783Z,101483.84
2023-03-27T18:21:03.521Z,101482.97
2023-03-27T18:23:07.209Z,101474.34
2023-03-27T18:25:11.662Z,101478.66
2023-03-27T18:27:16.467Z,101507.06
2023-03-27T18:29:21.244Z,101499.31
2023-03-27T18:31:25.126Z,101495.84
2023-03-27T18:33:28.718Z,101507.00
2023-03-27T18:35:32.598Z,101499.25
2023-03-27T18:37:37.315Z,101501.03
2023-03-27T18:39:40.736Z,101501.06
2023-03-27T18:41:43.946Z,101499.38
2023-03-27T18:43:47.217Z,101493.41
2023-03-27T18:45:57.270Z,101504.69
2023-03-27T18:48:01.195Z,101501.28
2023-03-27T18:50:05.086Z,101500.44
2023-03-27T18:52:09.953Z,101495.31
2023-03-27T18:54:14.702Z,101501.41
2023-03-27T18:56:18.656Z,101508.38
2023-03-27T18:58:24.335Z,101499.75
2023-03-27T19:00:27.960Z,101501.47
2023-03-27T19:02:32.246Z,101504.97
2023-03-27T19:04:36.029Z,101498.06
2023-03-27T19:06:39.289Z,101501.53
2023-03-27T19:08:45.431Z,101499.81
2023-03-27T19:10:50.139Z,101499.84
2023-03-27T19:12:56.497Z,101494.66
2023-03-27T19:15:20.245Z,101502.44
2023-03-27T19:17:42.522Z,101493.75
2023-03-27T19:20:05.050Z,101495.44
2023-03-27T19:22:14.982Z,101501.41
2023-03-27T19:24:22.605Z,101509.97
2023-03-27T19:26:27.206Z,101507.34
2023-03-27T19:28:30.612Z,101499.53
2023-03-27T19:30:35.540Z,101494.28
2023-03-27T19:32:39.301Z,101501.09
2023-03-27T19:34:43.220Z,101488.91
2023-03-27T19:36:46.911Z,101494.00
2023-03-27T19:38:52.453Z,101499.94
2023-03-27T19:40:56.243Z,101502.44
2023-03-27T19:43:01.030Z,101494.59
2023-03-27T19:45:04.531Z,101499.69
2023-03-27T19:47:09.679Z,101490.97
2023-03-27T19:49:16.184Z,101480.53
2023-03-27T19:51:31.098Z,101489.97
2023-03-27T19:53:35.303Z,101491.56
2023-03-27T19:55:40.074Z,101492.38
2023-03-27T19:57:43.565Z,101480.22
2023-03-27T19:59:48.246Z,101467.25
2023-03-27T20:01:51.662Z,101492.25
2023-03-27T20:03:57.085Z,101496.56
2023-03-27T20:06:07.644Z,101515.53
2023-03-27T20:08:11.615Z,101508.59
2023-03-27T20:10:15.905Z,101510.31
2023-03-27T20:12:19.803Z,101512.03
2023-03-27T20:14:23.125Z,101508.53
2023-03-27T20:16:28.866Z,101509.44
2023-03-27T20:18:32.844Z,101512.91
2023-03-27T20:20:37.772Z,101512.88
2023-03-27T20:22:57.086Z,101511.13
2023-03-27T20:25:01.070Z,101518.88
2023-03-27T20:27:07.203Z,101519.75
2023-03-27T20:29:13.629Z,101521.47
2023-03-27T20:31:17.267Z,101522.31
2023-03-27T20:33:22.113Z,101532.66
2023-03-27T20:35:25.584Z,101525.72
2023-03-27T20:37:30.875Z,101525.75
2023-03-27T20:39:53.800Z,101539.56
2023-03-27T20:41:59.360Z,101537.84
2023-03-27T20:44:03.799Z,101536.09
2023-03-27T20:46:10.714Z,101544.72
2023-03-27T20:48:18.091Z,101537.78
2023-03-27T20:50:31.145Z,101541.25
2023-03-27T20:52:34.555Z,101540.38
2023-03-27T20:54:38.354Z,101543.78
2023-03-27T20:56:44.176Z,101539.47
2023-03-27T20:58:47.623Z,101544.66
2023-03-27T21:00:52.094Z,101541.25
2023-03-27T21:02:55.621Z,101541.31
2023-03-27T21:04:58.946Z,101540.50
2023-03-27T21:07:05.178Z,101539.72
2023-03-27T21:09:09.326Z,101541.53
2023-03-27T21:11:12.767Z,101538.13
2023-03-27T21:13:16.035Z,101539.88
2023-03-27T21:15:19.555Z,101546.84
2023-03-27T21:17:22.902Z,101541.66
2023-03-27T21:19:26.119Z,101548.63
2023-03-27T21:21:31.244Z,101544.31
2023-03-27T21:23:36.984Z,101539.13
2023-03-27T21:25:40.285Z,101540.06
2023-03-27T21:27:43.916Z,101539.25
2023-03-27T21:29:47.315Z,101546.22
2023-03-27T21:31:50.942Z,101540.25
2023-03-27T21:33:56.716Z,101542.91
2023-03-27T21:36:01.864Z,101539.56
2023-03-27T21:38:05.517Z,101537.03
2023-03-27T21:40:11.328Z,101548.31
2023-03-27T21:42:14.679Z,101552.72
2023-03-27T21:44:17.987Z,101552.78
2023-03-27T21:46:21.294Z,101556.31
2023-03-27T21:48:24.701Z,101552.91
2023-03-27T21:50:27.987Z,101552.94
2023-03-27T21:52:31.208Z,101556.38
2023-03-27T21:54:34.677Z,101548.59
2023-03-27T21:56:39.316Z,101549.47
2023-03-27T21:58:42.600Z,101550.34
2023-03-27T22:00:46.465Z,101547.75
2023-03-27T22:02:49.760Z,101546.00
2023-03-27T22:04:53.169Z,101547.66
2023-03-27T22:06:56.517Z,101550.16
2023-03-27T22:08:59.779Z,101552.66
2023-03-27T22:11:03.034Z,101563.72
2023-03-27T22:13:07.782Z,101581.72
2023-03-27T22:15:11.979Z,101605.78
2023-03-27T22:17:15.700Z,101600.53
2023-03-27T22:19:19.230Z,101603.13
2023-03-27T22:21:24.770Z,101610.13
2023-03-27T22:23:28.078Z,101601.66
2023-03-27T22:25:31.424Z,101618.28
2023-03-27T22:27:35.030Z,101611.63
2023-03-27T22:29:39.762Z,101610.97
2023-03-27T22:31:43.037Z,101618.03
2023-03-27T22:33:46.525Z,101608.69
2023-03-27T22:35:50.099Z,101617.50
2023-03-27T22:37:53.385Z,101612.47
2023-03-27T22:39:56.643Z,101616.03
2023-03-27T22:42:00.001Z,101619.59
2023-03-27T22:44:03.467Z,101623.19
2023-03-27T22:46:10.120Z,101631.91
2023-03-27T22:48:13.751Z,101627.72
2023-03-27T22:50:17.196Z,101635.56
2023-03-27T22:52:20.708Z,101633.09
2023-03-27T22:54:23.922Z,101642.63
2023-03-27T22:56:27.120Z,101646.13
2023-03-27T22:58:30.569Z,101647.06
2023-03-27T23:00:33.763Z,101647.13
2023-03-27T23:02:38.543Z,101646.34
2023-03-27T23:04:41.970Z,101648.09
2023-03-27T23:06:45.426Z,101652.44
2023-03-27T23:08:49.237Z,101655.03
2023-03-27T23:10:56.764Z,101650.78
2023-03-27T23:12:59.960Z,101656.81
2023-03-27T23:15:03.343Z,101662.00
2023-03-27T23:17:06.692Z,101665.47
2023-03-27T23:19:11.495Z,101674.09
2023-03-27T23:21:16.759Z,101681.00
2023-03-27T23:23:20.243Z,101682.75
2023-03-27T23:25:23.486Z,101684.50
2023-03-27T23:27:27.075Z,101686.25
2023-03-27T23:29:30.316Z,101686.31
2023-03-27T23:31:33.735Z,101690.63
2023-03-27T23:33:39.538Z,101690.66
2023-03-27T23:35:44.233Z,101700.13
2023-03-27T23:37:47.784Z,101701.88
2023-03-27T23:39:51.051Z,101696.75
2023-03-27T23:41:54.253Z,101708.81
2023-03-27T23:43:57.677Z,101710.56
2023-03-27T23:46:01.211Z,101720.88
2023-03-27T23:48:04.715Z,101710.59
2023-03-27T23:50:08.836Z,101720.94
2023-03-27T23:52:13.822Z,101721.84
2023-03-27T23:54:17.111Z,101721.84
2023-03-27T23:56:20.308Z,101725.34
2023-03-27T23:58:23.587Z,101731.38
